createdAt,value
2019-03-31T00:02:08.907Z,32.13
2019-03-31T00:05:15.381Z,31.97
2019-03-31T00:08:21.653Z,31.73
2019-03-31T00:11:27.912Z,33.00
2019-03-31T00:14:34.207Z,32.67
2019-03-31T00:17:40.448Z,30.57
2019-03-31T00:20:46.681Z,38.23
2019-03-31T00:23:52.932Z,37.23
2019-03-31T00:26:59.347Z,42.63
2019-03-31T00:30:05.953Z,41.23
2019-03-31T00:33:13.397Z,44.67
2019-03-31T00:36:19.636Z,45.50
2019-03-31T00:39:25.865Z,44.60
2019-03-31T00:42:32.204Z,45.30
2019-03-31T00:45:38.703Z,41.57
2019-03-31T00:48:44.939Z,48.17
2019-03-31T00:51:51.190Z,51.53
2019-03-31T00:54:57.453Z,48.67
2019-03-31T00:58:03.670Z,37.67
2019-03-31T01:01:36.272Z,39.17
2019-03-31T01:04:39.387Z,36.47
2019-03-31T01:07:45.794Z,39.33
2019-03-31T01:10:52.010Z,37.10
2019-03-31T01:13:58.638Z,42.17
2019-03-31T01:17:07.088Z,45.73
2019-03-31T01:20:13.493Z,50.83
2019-03-31T01:23:20.867Z,49.13
2019-03-31T01:26:27.207Z,51.63
2019-03-31T01:29:33.597Z,45.87
2019-03-31T01:32:40.376Z,49.87
2019-03-31T01:35:46.610Z,46.83
2019-03-31T01:38:52.825Z,51.30
2019-03-31T01:41:59.219Z,52.80
2019-03-31T01:45:05.714Z,55.77
2019-03-31T01:48:11.941Z,46.47
2019-03-31T01:51:19.226Z,47.13
2019-03-31T01:54:25.444Z,44.70
2019-03-31T01:57:31.766Z,43.43
2019-03-31T02:00:41.261Z,49.13
2019-03-31T02:03:47.783Z,45.17
2019-03-31T02:06:54.102Z,42.70
2019-03-31T02:10:00.373Z,46.73
2019-03-31T02:13:06.676Z,47.07
2019-03-31T02:16:12.934Z,42.27
2019-03-31T02:19:19.145Z,43.67
2019-03-31T02:22:25.410Z,43.50
2019-03-31T02:25:31.636Z,40.47
2019-03-31T02:28:38.945Z,38.43
2019-03-31T02:31:45.213Z,34.83
2019-03-31T02:34:51.457Z,36.90
2019-03-31T02:37:57.748Z,34.57
2019-03-31T02:41:04.052Z,38.63
2019-03-31T02:44:10.302Z,33.97
2019-03-31T02:47:16.555Z,38.60
2019-03-31T02:50:51.096Z,35.70
2019-03-31T02:53:57.492Z,33.87
2019-03-31T02:57:04.709Z,33.07
2019-03-31T03:00:11.054Z,40.27
2019-03-31T03:03:18.113Z,30.90
2019-03-31T03:06:26.329Z,30.97
2019-03-31T03:09:35.936Z,32.57
2019-03-31T03:12:45.857Z,31.97
2019-03-31T03:16:29.024Z,27.67
2019-03-31T03:19:35.391Z,34.47
2019-03-31T03:22:41.665Z,34.23
2019-03-31T03:25:55.764Z,32.87
2019-03-31T03:28:55.985Z,32.67
2019-03-31T03:32:02.347Z,34.40
2019-03-31T03:35:08.737Z,35.13
2019-03-31T03:38:14.983Z,36.17
2019-03-31T03:41:21.201Z,30.67
2019-03-31T03:44:27.447Z,32.80
2019-03-31T03:47:33.719Z,36.13
2019-03-31T03:50:39.998Z,36.07
2019-03-31T03:53:46.348Z,33.87
2019-03-31T03:56:52.552Z,32.63
2019-03-31T03:59:58.763Z,33.27
2019-03-31T04:03:05.144Z,30.57
2019-03-31T04:06:11.418Z,36.80
2019-03-31T04:09:17.647Z,41.80
2019-03-31T04:12:24.919Z,41.27
2019-03-31T04:15:31.198Z,38.33
2019-03-31T04:18:37.490Z,37.93
2019-03-31T04:21:43.771Z,33.10
2019-03-31T04:24:49.963Z,29.77
2019-03-31T04:27:56.222Z,29.63
2019-03-31T04:31:02.504Z,32.03
2019-03-31T04:34:08.764Z,33.37
2019-03-31T04:37:15.105Z,35.23
2019-03-31T04:40:21.427Z,34.10
2019-03-31T04:43:27.636Z,33.37
2019-03-31T04:46:34.015Z,34.73
2019-03-31T04:49:40.413Z,32.40
2019-03-31T04:52:46.665Z,37.10
2019-03-31T04:55:52.967Z,39.03
2019-03-31T04:58:59.176Z,37.77
2019-03-31T05:02:05.515Z,39.43
2019-03-31T05:05:11.780Z,42.73
2019-03-31T05:08:18.001Z,43.23
2019-03-31T05:11:24.326Z,49.03
2019-03-31T05:14:30.527Z,46.10
2019-03-31T05:17:36.769Z,49.50
2019-03-31T05:20:42.975Z,43.00
2019-03-31T05:23:49.219Z,42.50
2019-03-31T05:26:55.457Z,44.23
2019-03-31T05:30:01.686Z,43.57
2019-03-31T05:33:09.063Z,44.03
2019-03-31T05:36:15.427Z,46.17
2019-03-31T05:39:21.650Z,45.07
2019-03-31T05:42:27.986Z,48.93
2019-03-31T05:45:34.227Z,47.93
2019-03-31T05:48:40.445Z,49.70
2019-03-31T05:51:46.733Z,50.63
2019-03-31T05:54:52.949Z,47.83
2019-03-31T05:57:59.270Z,38.90
2019-03-31T06:01:05.561Z,39.67
2019-03-31T06:04:12.125Z,37.47
2019-03-31T06:07:18.371Z,38.50
2019-03-31T06:10:24.904Z,42.30
2019-03-31T06:13:31.127Z,39.23
2019-03-31T06:16:37.518Z,39.30
2019-03-31T06:19:43.739Z,36.77
2019-03-31T06:22:49.997Z,40.50
2019-03-31T06:25:56.201Z,37.30
2019-03-31T06:29:02.443Z,39.97
2019-03-31T06:32:08.698Z,39.03
2019-03-31T06:35:15.009Z,41.47
2019-03-31T06:38:21.331Z,38.13
2019-03-31T06:41:27.548Z,37.40
2019-03-31T06:44:33.810Z,35.63
2019-03-31T06:47:40.121Z,34.60
2019-03-31T06:50:46.387Z,33.97
2019-03-31T06:53:52.770Z,35.83
2019-03-31T06:56:59.170Z,29.33
2019-03-31T07:00:06.198Z,30.97
2019-03-31T07:03:12.505Z,29.07
2019-03-31T07:06:18.835Z,28.70
2019-03-31T07:09:25.067Z,25.80
2019-03-31T07:12:31.414Z,26.37
2019-03-31T07:15:37.639Z,28.93
2019-03-31T07:18:43.918Z,25.97
2019-03-31T07:21:50.274Z,27.57
2019-03-31T07:24:56.913Z,25.87
2019-03-31T07:28:03.149Z,27.57
2019-03-31T07:31:09.564Z,25.43
2019-03-31T07:34:15.775Z,22.87
2019-03-31T07:37:22.136Z,28.10
2019-03-31T07:40:28.511Z,29.47
2019-03-31T07:43:34.695Z,28.47
2019-03-31T07:46:40.998Z,29.70
2019-03-31T07:49:47.694Z,29.20
2019-03-31T07:52:54.101Z,27.33
2019-03-31T07:56:00.372Z,28.30
2019-03-31T07:59:06.651Z,27.17
2019-03-31T08:02:12.983Z,27.20
2019-03-31T08:05:32.345Z,25.80
2019-03-31T08:08:28.209Z,28.57
2019-03-31T08:11:34.518Z,29.10
2019-03-31T08:14:40.841Z,31.73
2019-03-31T08:17:48.468Z,26.23
2019-03-31T08:20:54.728Z,30.80
2019-03-31T08:24:01.024Z,24.67
2019-03-31T08:27:07.757Z,25.03
2019-03-31T08:30:16.472Z,22.07
2019-03-31T08:33:22.721Z,22.37
2019-03-31T08:36:29.018Z,21.40
2019-03-31T08:39:35.365Z,20.60
2019-03-31T08:42:41.589Z,19.30
2019-03-31T08:45:47.950Z,18.13
2019-03-31T08:48:54.174Z,18.50
2019-03-31T08:52:00.450Z,15.73
2019-03-31T08:55:07.763Z,18.00
2019-03-31T08:58:14.031Z,15.97
2019-03-31T09:01:20.662Z,14.90
2019-03-31T09:04:26.873Z,13.97
2019-03-31T09:07:33.124Z,14.40
2019-03-31T09:10:39.362Z,16.27
2019-03-31T09:13:45.648Z,12.97
2019-03-31T09:16:51.963Z,12.60
2019-03-31T09:19:58.172Z,12.17
2019-03-31T09:23:04.530Z,11.20
2019-03-31T09:26:11.004Z,13.03
2019-03-31T09:29:17.534Z,13.10
2019-03-31T09:32:24.185Z,15.33
2019-03-31T09:35:30.420Z,14.63
2019-03-31T09:38:36.779Z,16.27
2019-03-31T09:41:43.080Z,13.33
2019-03-31T09:44:49.630Z,14.07
2019-03-31T09:47:55.968Z,14.63
2019-03-31T09:51:02.221Z,13.90
2019-03-31T09:54:08.680Z,12.37
2019-03-31T09:57:14.974Z,13.33
2019-03-31T10:00:32.258Z,12.37
2019-03-31T10:03:38.591Z,12.27
2019-03-31T10:06:45.081Z,13.23
2019-03-31T10:09:51.822Z,17.10
2019-03-31T10:12:58.195Z,10.83
2019-03-31T10:16:04.415Z,11.57
2019-03-31T10:19:10.666Z,9.37
2019-03-31T10:22:16.929Z,12.57
2019-03-31T10:25:23.135Z,8.67
2019-03-31T10:28:29.405Z,10.27
2019-03-31T10:31:35.679Z,9.30
2019-03-31T10:34:41.933Z,12.10
2019-03-31T10:37:48.251Z,12.80
2019-03-31T10:40:54.487Z,12.53
2019-03-31T10:44:00.730Z,9.37
2019-03-31T10:47:07.151Z,11.00
2019-03-31T10:50:13.632Z,11.60
2019-03-31T10:53:19.867Z,11.80
2019-03-31T10:56:26.084Z,8.53
2019-03-31T10:59:32.319Z,13.23
2019-03-31T11:02:38.607Z,8.90
2019-03-31T11:05:44.827Z,9.03
2019-03-31T11:08:51.227Z,7.83
2019-03-31T11:11:57.495Z,8.93
2019-03-31T11:15:03.938Z,9.90
2019-03-31T11:18:10.228Z,10.67
2019-03-31T11:21:30.686Z,10.93
2019-03-31T11:24:36.947Z,9.93
2019-03-31T11:27:43.964Z,8.97
2019-03-31T11:30:50.525Z,10.37
2019-03-31T11:33:56.738Z,9.07
2019-03-31T11:37:13.483Z,8.03
2019-03-31T11:40:11.334Z,8.33
2019-03-31T11:43:17.658Z,7.77
2019-03-31T11:46:23.870Z,10.03
2019-03-31T11:49:30.232Z,6.67
2019-03-31T11:52:36.655Z,12.73
2019-03-31T11:55:42.869Z,7.37
2019-03-31T11:58:49.129Z,8.93
2019-03-31T12:01:55.418Z,8.00
2019-03-31T12:05:01.634Z,8.77
2019-03-31T12:08:07.859Z,8.23
2019-03-31T12:11:14.156Z,8.00
2019-03-31T12:14:20.491Z,8.33
2019-03-31T12:17:26.757Z,7.93
2019-03-31T12:20:33.064Z,7.57
2019-03-31T12:23:39.422Z,7.40
2019-03-31T12:26:45.629Z,8.13
2019-03-31T12:29:51.924Z,8.57
2019-03-31T12:32:58.402Z,7.57
2019-03-31T12:36:06.653Z,6.40
2019-03-31T12:39:12.925Z,8.70
2019-03-31T12:42:19.122Z,8.47
2019-03-31T12:45:25.465Z,9.07
2019-03-31T12:48:31.902Z,6.80
2019-03-31T12:51:38.314Z,7.40
2019-03-31T12:54:44.565Z,7.47
2019-03-31T12:57:52.046Z,7.77
2019-03-31T13:00:58.684Z,8.67
2019-03-31T13:04:04.884Z,8.60
2019-03-31T13:07:14.665Z,6.87
2019-03-31T13:10:19.107Z,9.13
2019-03-31T13:13:25.328Z,10.17
2019-03-31T13:16:31.540Z,11.57
2019-03-31T13:19:37.845Z,9.13
2019-03-31T13:22:45.881Z,7.47
2019-03-31T13:25:52.055Z,7.23
2019-03-31T13:28:58.462Z,9.83
2019-03-31T13:32:04.786Z,9.90
2019-03-31T13:35:11.133Z,8.27
2019-03-31T13:38:17.368Z,11.17
2019-03-31T13:41:23.607Z,9.87
2019-03-31T13:44:29.814Z,9.63
2019-03-31T13:47:37.182Z,11.73
2019-03-31T13:50:43.419Z,10.83
2019-03-31T13:53:49.651Z,8.93
2019-03-31T13:56:56.655Z,8.43
2019-03-31T14:00:03.569Z,9.70
2019-03-31T14:03:10.023Z,8.70
2019-03-31T14:06:17.772Z,8.73
2019-03-31T14:09:24.027Z,11.57
2019-03-31T14:12:30.276Z,10.27
2019-03-31T14:15:36.681Z,8.40
2019-03-31T14:18:44.028Z,8.93
2019-03-31T14:21:50.291Z,10.37
2019-03-31T14:24:56.511Z,6.67
2019-03-31T14:28:02.763Z,7.73
2019-03-31T14:31:08.967Z,6.90
2019-03-31T14:34:15.386Z,8.93
2019-03-31T14:37:21.685Z,9.57
2019-03-31T14:40:27.912Z,8.47
2019-03-31T14:43:34.145Z,12.30
2019-03-31T14:46:40.355Z,7.83
2019-03-31T14:49:46.651Z,6.20
2019-03-31T14:52:52.829Z,8.27
2019-03-31T14:55:59.072Z,6.97
2019-03-31T14:59:05.503Z,9.63
2019-03-31T15:02:11.889Z,10.17
2019-03-31T15:05:18.132Z,7.93
2019-03-31T15:08:24.406Z,7.67
2019-03-31T15:11:30.690Z,5.47
2019-03-31T15:14:36.875Z,9.17
2019-03-31T15:17:43.174Z,7.73
2019-03-31T15:20:49.350Z,8.93
2019-03-31T15:23:55.592Z,6.73
2019-03-31T15:27:01.988Z,6.93
2019-03-31T15:30:08.634Z,8.03
2019-03-31T15:33:14.859Z,10.50
2019-03-31T15:36:21.166Z,9.43
2019-03-31T15:39:27.412Z,8.63
2019-03-31T15:42:33.669Z,8.80
2019-03-31T15:45:39.938Z,7.10
2019-03-31T15:48:46.207Z,9.57
2019-03-31T15:51:52.494Z,8.23
2019-03-31T15:54:58.761Z,8.10
2019-03-31T15:58:05.563Z,12.30
2019-03-31T16:01:13.544Z,13.93
2019-03-31T16:04:19.810Z,5.80
2019-03-31T16:07:25.977Z,9.47
2019-03-31T16:10:31.679Z,6.83
2019-03-31T16:13:37.346Z,7.90
2019-03-31T16:16:43.034Z,7.00
2019-03-31T16:19:48.835Z,8.73
2019-03-31T16:22:54.493Z,10.73
2019-03-31T16:26:00.190Z,9.43
2019-03-31T16:29:06.050Z,11.90
2019-03-31T16:32:11.732Z,11.10
2019-03-31T16:35:17.452Z,7.37
2019-03-31T16:38:25.676Z,8.50
2019-03-31T16:41:30.535Z,7.60
2019-03-31T16:44:36.347Z,11.20
2019-03-31T16:47:42.043Z,8.47
2019-03-31T16:50:47.898Z,11.03
2019-03-31T16:53:53.563Z,10.20
2019-03-31T16:56:59.619Z,10.53
2019-03-31T17:00:06.246Z,25.73
2019-03-31T17:03:13.155Z,7.97
2019-03-31T17:06:18.990Z,23.90
2019-03-31T17:09:24.685Z,33.33
2019-03-31T17:12:30.457Z,14.57
2019-03-31T17:15:36.184Z,12.40
2019-03-31T17:18:43.168Z,64.63
2019-03-31T17:21:48.848Z,22.73
2019-03-31T17:24:54.588Z,32.07
2019-03-31T17:28:00.406Z,17.73
2019-03-31T17:31:06.459Z,17.37
2019-03-31T17:34:12.155Z,15.40
2019-03-31T17:37:17.963Z,23.70
2019-03-31T17:40:23.650Z,16.90
2019-03-31T17:43:29.353Z,52.33
2019-03-31T17:46:35.102Z,18.70
2019-03-31T17:49:41.122Z,18.63
2019-03-31T17:52:46.892Z,27.20
2019-03-31T17:55:53.677Z,26.90
2019-03-31T17:59:00.655Z,14.47
2019-03-31T18:02:06.681Z,16.27
2019-03-31T18:05:12.638Z,22.77
2019-03-31T18:08:18.384Z,19.43
2019-03-31T18:11:24.170Z,27.90
2019-03-31T18:14:29.880Z,31.57
2019-03-31T18:17:35.653Z,43.93
2019-03-31T18:20:41.377Z,32.20
2019-03-31T18:23:47.144Z,28.77
2019-03-31T18:26:52.887Z,35.50
2019-03-31T18:29:58.635Z,34.07
2019-03-31T18:33:04.525Z,34.53
2019-03-31T18:36:10.290Z,112.30
2019-03-31T18:39:16.049Z,29.40
2019-03-31T18:42:21.759Z,24.83
2019-03-31T18:45:27.485Z,93.17
2019-03-31T18:48:33.289Z,26.20
2019-03-31T18:51:39.041Z,25.40
2019-03-31T18:55:06.612Z,24.37
2019-03-31T18:58:20.185Z,21.20
2019-03-31T19:01:44.767Z,18.73
2019-03-31T19:05:03.787Z,24.23
2019-03-31T19:08:25.195Z,20.40
2019-03-31T19:11:34.961Z,29.37
2019-03-31T19:15:02.402Z,25.77
2019-03-31T19:18:15.286Z,19.97
2019-03-31T19:21:38.398Z,18.80
2019-03-31T19:25:06.055Z,18.27
2019-03-31T19:28:33.500Z,20.33
2019-03-31T19:31:58.374Z,25.70
2019-03-31T19:35:35.046Z,29.83
2019-03-31T19:39:11.791Z,30.00
2019-03-31T19:42:34.920Z,31.87
2019-03-31T19:45:52.152Z,33.73
2019-03-31T19:49:12.415Z,20.77
2019-03-31T19:52:52.008Z,22.87
2019-03-31T19:56:22.521Z,26.33
2019-03-31T19:59:52.952Z,16.80
2019-03-31T20:03:13.403Z,27.50
2019-03-31T20:06:42.431Z,20.20
2019-03-31T20:10:04.725Z,27.40
2019-03-31T20:13:21.043Z,18.60
2019-03-31T20:16:52.834Z,26.40
2019-03-31T20:20:09.555Z,25.70
2019-03-31T20:23:34.312Z,16.60
2019-03-31T20:26:54.886Z,19.90
2019-03-31T20:30:22.542Z,20.37
2019-03-31T20:33:41.255Z,25.00
2019-03-31T20:37:10.182Z,42.07
2019-03-31T20:40:22.649Z,26.60
2019-03-31T20:43:44.289Z,37.60
2019-03-31T20:46:50.159Z,13.63
2019-03-31T20:49:55.897Z,12.97
2019-03-31T20:53:01.562Z,9.37
2019-03-31T20:56:07.296Z,11.80
2019-03-31T20:59:13.070Z,8.60
2019-03-31T21:02:18.863Z,10.70
2019-03-31T21:05:24.580Z,20.77
2019-03-31T21:08:30.321Z,20.77
2019-03-31T21:11:36.084Z,43.97
2019-03-31T21:14:41.860Z,10.53
2019-03-31T21:17:47.593Z,12.37
2019-03-31T21:20:53.293Z,50.43
2019-03-31T21:23:58.995Z,15.30
2019-03-31T21:27:04.660Z,12.50
2019-03-31T21:30:10.718Z,52.30
2019-03-31T21:33:16.390Z,43.60
2019-03-31T21:36:22.089Z,31.93
2019-03-31T21:39:27.757Z,31.30
2019-03-31T21:42:33.498Z,33.47
2019-03-31T21:45:39.369Z,37.27
2019-03-31T21:48:45.087Z,31.03
2019-03-31T21:51:50.791Z,28.57
2019-03-31T21:54:56.617Z,24.33
2019-03-31T21:58:02.333Z,33.10
2019-03-31T22:01:08.122Z,16.07
2019-03-31T22:04:15.112Z,26.80
2019-03-31T22:07:20.879Z,22.57
2019-03-31T22:10:26.562Z,28.03
2019-03-31T22:13:32.383Z,28.33
2019-03-31T22:16:38.183Z,20.80
2019-03-31T22:19:43.908Z,25.43
2019-03-31T22:22:49.577Z,19.47
2019-03-31T22:25:55.271Z,17.43
2019-03-31T22:29:00.955Z,15.10
2019-03-31T22:32:06.681Z,13.50
2019-03-31T22:35:12.472Z,11.77
2019-03-31T22:38:18.141Z,16.00
2019-03-31T22:41:23.948Z,15.50
2019-03-31T22:44:29.878Z,32.37
2019-03-31T22:47:36.681Z,25.27
2019-03-31T22:50:42.376Z,14.67
2019-03-31T22:53:48.073Z,17.23
2019-03-31T22:56:53.748Z,19.10
2019-03-31T22:59:59.503Z,23.37
2019-03-31T23:03:05.265Z,22.00
2019-03-31T23:06:10.950Z,18.93
2019-03-31T23:09:16.677Z,15.43
2019-03-31T23:12:22.350Z,14.10
2019-03-31T23:15:28.081Z,13.30
2019-03-31T23:18:33.888Z,13.20
2019-03-31T23:21:39.668Z,9.80
2019-03-31T23:24:45.348Z,15.67
2019-03-31T23:27:51.041Z,12.20
2019-03-31T23:30:56.728Z,10.30
2019-03-31T23:34:02.415Z,12.63
2019-03-31T23:37:08.104Z,10.37
2019-03-31T23:40:13.916Z,14.10
2019-03-31T23:43:19.683Z,13.30
2019-03-31T23:46:25.345Z,15.77
2019-03-31T23:49:31.108Z,16.33
2019-03-31T23:52:36.850Z,12.27
2019-03-31T23:55:42.612Z,12.73
2019-03-31T23:58:48.292Z,13.37
